Southampton, NY (11968)

3:27 PM EST on January 24, 2017 (GMT -0500)
SoMAS Southampton | | Change Station
Active Advisory: Small Craft Advisory

Elev 13 ft 40.88 °N, 72.44 °W | Updated 36 seconds ago

Overcast
Overcast
41.0 °F
Feels Like 41 °F
N
0.0
Wind Variable Wind from WNW
Gusts 0.0 mph

Today
High -- | Low -- °F
--% Chance of Precip.
Yesterday
High -- | Low -- °F
Precip. -- in
Pressure 29.17 in
Visibility 7.0 miles
Clouds Overcast 800 ft
Windchill 41 °F
Dew Point 39 °F
Humidity 93%
Rainfall 0.72 in
Snow Depth Not available.
7:06 AM 4:57 PM
Waning Crescent, 10% visible
METAR KHTO 242015Z AUTO 36015G21KT 330V030 7SM OVC008 05/04 A2917 RMK AO2 T00490037
Pressure 29.17 in
Visibility 7.0 miles
Clouds Overcast 800 ft
Windchill 41 °F
Dew Point 39 °F
Humidity 93%
Rainfall 0.72 in
Snow Depth Not available.
7:06 AM 4:57 PM
Waning Crescent, 10% visible
METAR KHTO 242015Z AUTO 36015G21KT 330V030 7SM OVC008 05/04 A2917 RMK AO2 T00490037

Get Your Daily Forecast Email!

Thanks for signing up!

Be on the lookout for a verification email in your inbox.

You'll start receiving the daily forecast at 8 AM.

×

10-Day Weather Forecast

Almanac

Astronomy

Jan. 24, 2017 Rise Set
Actual Time
Civil Twilight
Nautical Twilight
Astronomical Twilight
Moon
Length of Visible Light
Length of Day
Tomorrow will be .
, % of the Moon is Illuminated

Today's Extremes

State Highs State Lows

Community

WunderPhotos

Upload Photos

1,962,540 photos uploaded!

WunderBlog® & News

Nearby

Air Quality

  Air Quality AQ Index Pollutant
Not available.

Snow Depth

Station Depth Elevation

Earthquake Activity

City Distance Mag. Time & Date
Minimum magnitude displayed is 2.5.

Coastal Water Temperatures

Place Temperature

Stations

Nearby Weather Stations

Station Location Temp. Windchill Dew Point Humidity Wind Precip. Elev Updated Type
                   

Watches & Warnings

Small Craft Advisory
Issued: 3:12 PM EST Jan. 24, 2017 – National Weather Service

... Small Craft Advisory remains in effect until 6 am EST
Wednesday...

* winds... northwest winds 15 to 25 kt with gusts up to 30 kt.

Precautionary/preparedness actions...

A Small Craft Advisory means that sustained wind speeds or
frequent gusts of 25 to 33 kt and/or seas of 5 ft or higher are
expected or occurring... and hazardous to small craft.
Inexperienced mariners... especially those operating smaller
vessels... should avoid navigating in these conditions.